createdAt,value
2022-11-15T00:00:10.635Z,131.07
2022-11-15T00:00:33.446Z,132.77
2022-11-15T00:00:56.340Z,131.52
2022-11-15T00:01:19.837Z,128.27
2022-11-15T00:01:42.751Z,128.93
2022-11-15T00:02:06.003Z,130.70
2022-11-15T00:02:28.801Z,129.25
2022-11-15T00:02:53.120Z,125.38
2022-11-15T00:03:16.280Z,123.80
2022-11-15T00:03:39.099Z,121.70
2022-11-15T00:04:01.805Z,115.55
2022-11-15T00:04:24.560Z,119.05
2022-11-15T00:04:47.305Z,123.07
2022-11-15T00:05:10.080Z,118.53
2022-11-15T00:05:36.499Z,123.88
2022-11-15T00:06:03.379Z,124.13
2022-11-15T00:06:26.225Z,123.03
2022-11-15T00:06:49.151Z,124.18
2022-11-15T00:07:17.890Z,124.07
2022-11-15T00:07:55.956Z,123.85
2022-11-15T00:08:19.181Z,124.88
2022-11-15T00:08:42.019Z,129.90
2022-11-15T00:09:04.835Z,124.38
2022-11-15T00:09:27.557Z,120.93
2022-11-15T00:09:50.288Z,121.13
2022-11-15T00:10:13.050Z,121.53
2022-11-15T00:10:35.780Z,121.68
2022-11-15T00:10:59.244Z,120.15
2022-11-15T00:11:21.949Z,120.07
2022-11-15T00:11:44.780Z,123.88
2022-11-15T00:12:07.604Z,122.30
2022-11-15T00:12:30.389Z,122.55
2022-11-15T00:12:53.100Z,123.55
2022-11-15T00:13:15.863Z,118.72
2022-11-15T00:13:38.661Z,125.43
2022-11-15T00:14:03.509Z,128.10
2022-11-15T00:14:26.394Z,130.20
2022-11-15T00:14:49.164Z,132.63
2022-11-15T00:15:11.949Z,132.63
2022-11-15T00:15:36.495Z,135.93
2022-11-15T00:15:59.708Z,133.90
2022-11-15T00:16:22.397Z,133.20
2022-11-15T00:16:45.250Z,132.05
2022-11-15T00:17:08.000Z,131.80
2022-11-15T00:17:30.949Z,135.13
2022-11-15T00:17:53.724Z,137.73
2022-11-15T00:18:16.539Z,134.00
2022-11-15T00:18:39.514Z,135.57
2022-11-15T00:19:02.899Z,130.68
2022-11-15T00:19:25.743Z,131.52
2022-11-15T00:19:48.504Z,134.93
2022-11-15T00:20:12.612Z,130.30
2022-11-15T00:20:35.483Z,126.15
2022-11-15T00:21:03.435Z,129.95
2022-11-15T00:21:26.278Z,128.52
2022-11-15T00:21:48.962Z,130.13
2022-11-15T00:22:11.785Z,126.63
2022-11-15T00:22:34.778Z,124.97
2022-11-15T00:22:58.963Z,129.27
2022-11-15T00:23:21.763Z,124.20
2022-11-15T00:23:44.724Z,126.25
2022-11-15T00:24:08.069Z,129.23
2022-11-15T00:24:30.997Z,126.75
2022-11-15T00:24:53.729Z,128.38
2022-11-15T00:25:16.624Z,125.40
2022-11-15T00:25:39.639Z,124.50
2022-11-15T00:26:02.363Z,126.07
2022-11-15T00:26:25.138Z,120.15
2022-11-15T00:26:48.915Z,125.07
2022-11-15T00:27:11.635Z,116.53
2022-11-15T00:27:34.514Z,121.30
2022-11-15T00:27:58.058Z,120.03
2022-11-15T00:28:20.836Z,121.40
2022-11-15T00:28:43.710Z,125.07
2022-11-15T00:29:06.955Z,119.13
2022-11-15T00:29:29.694Z,120.82
2022-11-15T00:29:52.495Z,120.32
2022-11-15T00:30:15.246Z,122.60
2022-11-15T00:30:37.939Z,125.15
2022-11-15T00:31:04.650Z,122.35
2022-11-15T00:31:27.443Z,125.53
2022-11-15T00:31:50.244Z,121.13
2022-11-15T00:32:12.997Z,122.32
2022-11-15T00:32:35.819Z,124.82
2022-11-15T00:32:59.218Z,121.10
2022-11-15T00:33:22.008Z,121.57
2022-11-15T00:33:45.471Z,129.48
2022-11-15T00:34:08.165Z,123.05
2022-11-15T00:34:30.894Z,120.45
2022-11-15T00:34:53.634Z,122.13
2022-11-15T00:35:16.399Z,124.30
2022-11-15T00:35:39.214Z,121.38
2022-11-15T00:36:02.752Z,118.90
2022-11-15T00:36:25.487Z,120.80
2022-11-15T00:36:48.218Z,121.45
2022-11-15T00:37:10.959Z,123.57
2022-11-15T00:37:33.702Z,117.35
2022-11-15T00:37:56.559Z,119.90
2022-11-15T00:38:20.709Z,118.07
2022-11-15T00:38:43.430Z,122.72
2022-11-15T00:39:07.075Z,122.60
2022-11-15T00:39:29.765Z,119.70
2022-11-15T00:39:52.535Z,120.53
2022-11-15T00:40:16.835Z,117.20
2022-11-15T00:40:39.596Z,121.15
2022-11-15T00:41:06.442Z,115.65
2022-11-15T00:41:32.134Z,123.22
2022-11-15T00:41:54.961Z,118.65
2022-11-15T00:42:17.839Z,119.93
2022-11-15T00:42:40.533Z,121.03
2022-11-15T00:43:03.244Z,116.20
2022-11-15T00:43:26.091Z,115.13
2022-11-15T00:43:48.847Z,115.85
2022-11-15T00:44:11.625Z,115.05
2022-11-15T00:44:34.405Z,115.22
2022-11-15T00:44:57.135Z,112.75
2022-11-15T00:45:20.083Z,113.65
2022-11-15T00:45:42.845Z,115.50
2022-11-15T00:46:05.896Z,114.38
2022-11-15T00:46:28.643Z,116.10
2022-11-15T00:46:51.375Z,112.43
2022-11-15T00:47:16.623Z,113.53
2022-11-15T00:47:39.397Z,119.63
2022-11-15T00:48:02.094Z,110.82
2022-11-15T00:48:24.819Z,111.78
2022-11-15T00:48:47.490Z,112.47
2022-11-15T00:49:10.245Z,113.72
2022-11-15T00:49:33.059Z,111.78
2022-11-15T00:49:55.734Z,119.05
2022-11-15T00:50:18.740Z,114.20
2022-11-15T00:50:41.674Z,114.22
2022-11-15T00:51:04.499Z,120.20
2022-11-15T00:51:27.299Z,122.53
2022-11-15T00:51:50.034Z,123.55
2022-11-15T00:52:12.720Z,118.75
2022-11-15T00:52:36.762Z,117.90
2022-11-15T00:52:59.619Z,120.60
2022-11-15T00:53:23.916Z,118.88
2022-11-15T00:53:46.643Z,120.03
2022-11-15T00:54:09.395Z,118.90
2022-11-15T00:54:32.170Z,119.88
2022-11-15T00:54:54.887Z,118.70
2022-11-15T00:55:18.112Z,117.97
2022-11-15T00:55:40.915Z,118.63
2022-11-15T00:56:03.803Z,121.97
2022-11-15T00:56:26.569Z,123.45
2022-11-15T00:56:49.445Z,121.32
2022-11-15T00:57:12.179Z,116.50
2022-11-15T00:57:34.930Z,117.88
2022-11-15T00:57:57.736Z,118.05
2022-11-15T00:58:20.461Z,114.50
2022-11-15T00:58:43.200Z,114.18
2022-11-15T00:59:05.998Z,107.72
2022-11-15T00:59:28.880Z,109.38
2022-11-15T00:59:51.584Z,113.93
2022-11-15T01:00:14.868Z,115.93
2022-11-15T01:00:37.624Z,111.38
2022-11-15T01:01:08.403Z,110.07
2022-11-15T01:01:31.176Z,115.55
2022-11-15T01:01:54.190Z,116.55
2022-11-15T01:02:16.872Z,114.47
2022-11-15T01:02:39.608Z,114.72
2022-11-15T01:03:06.087Z,117.10
2022-11-15T01:03:29.028Z,118.18
2022-11-15T01:03:52.177Z,121.05
2022-11-15T01:04:15.458Z,114.73
2022-11-15T01:04:38.242Z,114.53
2022-11-15T01:05:00.962Z,119.20
2022-11-15T01:05:23.833Z,116.43
2022-11-15T01:05:46.542Z,114.63
2022-11-15T01:06:09.353Z,110.07
2022-11-15T01:06:32.192Z,113.10
2022-11-15T01:06:54.938Z,114.68
2022-11-15T01:07:17.812Z,114.78
2022-11-15T01:07:40.696Z,111.55
2022-11-15T01:08:03.628Z,119.13
2022-11-15T01:08:27.977Z,116.75
2022-11-15T01:08:50.726Z,112.22
2022-11-15T01:09:14.737Z,113.93
2022-11-15T01:09:37.433Z,114.15
2022-11-15T01:10:00.310Z,117.55
2022-11-15T01:10:23.174Z,116.13
2022-11-15T01:10:45.908Z,114.75
2022-11-15T01:11:10.948Z,115.57
2022-11-15T01:11:33.774Z,118.50
2022-11-15T01:11:56.600Z,113.70
2022-11-15T01:12:19.367Z,113.03
2022-11-15T01:12:42.118Z,113.97
2022-11-15T01:13:04.907Z,113.93
2022-11-15T01:13:27.680Z,115.70
2022-11-15T01:13:50.564Z,112.55
2022-11-15T01:14:13.277Z,111.00
2022-11-15T01:14:36.008Z,115.07
2022-11-15T01:14:58.766Z,113.40
2022-11-15T01:15:21.552Z,111.28
2022-11-15T01:15:44.415Z,109.15
2022-11-15T01:16:08.717Z,110.82
2022-11-15T01:16:31.517Z,111.43
2022-11-15T01:16:54.280Z,107.78
2022-11-15T01:17:17.069Z,105.95
2022-11-15T01:17:39.822Z,104.28
2022-11-15T01:18:02.568Z,103.32
2022-11-15T01:18:25.289Z,108.05
2022-11-15T01:18:48.024Z,106.75
2022-11-15T01:19:10.827Z,106.93
2022-11-15T01:19:33.608Z,111.47
2022-11-15T01:19:56.319Z,110.90
2022-11-15T01:20:20.029Z,109.45
2022-11-15T01:20:43.161Z,112.70
2022-11-15T01:21:08.012Z,108.95
2022-11-15T01:21:30.827Z,111.30
2022-11-15T01:21:53.544Z,115.53
2022-11-15T01:22:16.403Z,118.25
2022-11-15T01:22:39.176Z,113.30
2022-11-15T01:23:01.923Z,115.18
2022-11-15T01:23:27.117Z,111.32
2022-11-15T01:23:49.882Z,115.97
2022-11-15T01:24:12.982Z,115.70
2022-11-15T01:24:35.664Z,111.38
2022-11-15T01:24:58.810Z,114.10
2022-11-15T01:25:21.463Z,114.03
2022-11-15T01:25:44.356Z,114.40
2022-11-15T01:26:08.526Z,113.22
2022-11-15T01:26:31.418Z,115.47
2022-11-15T01:26:54.212Z,114.13
2022-11-15T01:27:16.982Z,119.47
2022-11-15T01:27:39.927Z,123.85
2022-11-15T01:28:02.667Z,122.18
2022-11-15T01:28:25.442Z,122.50
2022-11-15T01:28:48.194Z,124.22
2022-11-15T01:29:10.957Z,124.47
2022-11-15T01:29:33.693Z,122.88
2022-11-15T01:29:56.400Z,121.82
2022-11-15T01:30:20.279Z,122.60
2022-11-15T01:30:43.041Z,122.88
2022-11-15T01:31:06.878Z,125.78
2022-11-15T01:31:29.728Z,123.75
2022-11-15T01:31:54.412Z,123.43
2022-11-15T01:32:17.156Z,122.20
2022-11-15T01:32:39.976Z,124.72
2022-11-15T01:33:02.705Z,125.35
2022-11-15T01:33:25.412Z,121.35
2022-11-15T01:33:48.350Z,124.22
2022-11-15T01:34:11.092Z,131.07
2022-11-15T01:34:33.906Z,122.13
2022-11-15T01:34:56.615Z,121.00
2022-11-15T01:35:19.424Z,123.05
2022-11-15T01:35:42.232Z,120.32
2022-11-15T01:36:06.257Z,119.90
2022-11-15T01:36:29.042Z,118.82
2022-11-15T01:36:51.812Z,122.50
2022-11-15T01:37:14.451Z,124.07
2022-11-15T01:37:37.181Z,121.72
2022-11-15T01:37:59.903Z,124.35
2022-11-15T01:38:22.687Z,122.35
2022-11-15T01:38:46.877Z,123.65
2022-11-15T01:39:09.668Z,126.88
2022-11-15T01:39:32.432Z,130.82
2022-11-15T01:39:57.752Z,128.38
2022-11-15T01:40:20.500Z,131.32
2022-11-15T01:40:43.224Z,130.50
2022-11-15T01:41:06.031Z,127.15
2022-11-15T01:41:29.931Z,129.43
2022-11-15T01:41:52.816Z,129.23
2022-11-15T01:42:15.652Z,128.98
2022-11-15T01:42:38.384Z,129.50
2022-11-15T01:43:16.008Z,130.95
2022-11-15T01:43:40.243Z,128.35
2022-11-15T01:44:37.851Z,130.23
2022-11-15T01:45:00.637Z,134.40
2022-11-15T01:45:23.522Z,133.77
2022-11-15T01:45:46.397Z,131.73
2022-11-15T01:46:19.527Z,127.03
2022-11-15T01:46:42.303Z,143.73
2022-11-15T01:47:07.332Z,138.13
2022-11-15T01:47:31.582Z,138.82
2022-11-15T01:47:54.472Z,145.30
2022-11-15T01:48:17.212Z,150.45
2022-11-15T01:48:39.958Z,145.07
2022-11-15T01:49:04.992Z,142.13
2022-11-15T01:49:28.822Z,142.32
2022-11-15T01:49:54.383Z,141.68
2022-11-15T01:50:19.022Z,139.00
2022-11-15T01:50:41.821Z,137.38
2022-11-15T01:51:09.256Z,144.80
2022-11-15T01:51:33.308Z,144.38
2022-11-15T01:51:56.259Z,141.35
2022-11-15T01:52:20.481Z,145.73
2022-11-15T01:52:43.195Z,147.18
2022-11-15T01:53:06.059Z,144.90
2022-11-15T01:53:29.024Z,145.07
2022-11-15T01:53:56.534Z,145.30
2022-11-15T01:54:21.758Z,146.30
2022-11-15T01:54:44.584Z,146.05
2022-11-15T01:55:09.127Z,147.55
2022-11-15T01:55:32.160Z,146.32
2022-11-15T01:55:54.958Z,144.10
2022-11-15T01:56:20.799Z,145.98
2022-11-15T01:56:45.131Z,146.27
2022-11-15T01:57:09.118Z,147.25
2022-11-15T01:57:31.760Z,147.00
2022-11-15T01:57:56.489Z,145.43
2022-11-15T01:58:19.189Z,138.20
2022-11-15T01:58:41.839Z,143.55
2022-11-15T01:59:05.741Z,142.00
2022-11-15T01:59:28.475Z,139.90
2022-11-15T01:59:51.289Z,135.18
2022-11-15T02:00:15.590Z,137.00
2022-11-15T02:00:38.385Z,138.38
2022-11-15T02:01:01.194Z,136.15
2022-11-15T02:01:24.018Z,137.07
2022-11-15T02:01:46.767Z,130.73
2022-11-15T02:02:09.475Z,134.85
2022-11-15T02:02:32.307Z,134.02
2022-11-15T02:02:55.199Z,133.07
2022-11-15T02:03:17.940Z,134.20
2022-11-15T02:03:43.050Z,138.15
2022-11-15T02:04:12.280Z,129.68
2022-11-15T02:04:39.683Z,132.75
2022-11-15T02:05:02.506Z,137.15
2022-11-15T02:05:25.289Z,137.77
2022-11-15T02:05:47.948Z,137.20
2022-11-15T02:06:10.779Z,130.48
2022-11-15T02:06:33.564Z,132.05
2022-11-15T02:06:56.366Z,135.63
2022-11-15T02:07:20.826Z,128.70
2022-11-15T02:07:43.693Z,130.32
2022-11-15T02:08:06.759Z,132.60
2022-11-15T02:08:29.494Z,130.00
2022-11-15T02:08:53.678Z,136.18
2022-11-15T02:09:17.119Z,140.23
2022-11-15T02:09:39.840Z,132.65
2022-11-15T02:10:04.860Z,139.75
2022-11-15T02:10:28.393Z,139.85
2022-11-15T02:10:51.093Z,139.93
2022-11-15T02:11:13.843Z,140.23
2022-11-15T02:11:36.564Z,139.63
2022-11-15T02:11:59.294Z,134.70
2022-11-15T02:12:22.744Z,129.38
2022-11-15T02:12:48.334Z,122.10
2022-11-15T02:13:11.110Z,128.30
2022-11-15T02:13:34.099Z,122.80
2022-11-15T02:13:57.340Z,119.40
2022-11-15T02:14:20.169Z,123.57
2022-11-15T02:14:44.173Z,121.72
2022-11-15T02:15:08.007Z,118.05
2022-11-15T02:15:33.402Z,116.88
2022-11-15T02:16:03.200Z,115.80
2022-11-15T02:16:29.172Z,119.80
2022-11-15T02:16:56.994Z,119.25
2022-11-15T02:17:31.657Z,121.57
2022-11-15T02:18:08.022Z,124.35
2022-11-15T02:18:33.378Z,124.40
2022-11-15T02:18:58.786Z,124.13
2022-11-15T02:19:31.058Z,124.75
2022-11-15T02:20:22.297Z,128.43
2022-11-15T02:20:58.985Z,128.15
2022-11-15T02:21:25.530Z,129.73
2022-11-15T02:21:50.468Z,128.65
2022-11-15T02:22:20.918Z,128.52
2022-11-15T02:22:48.009Z,129.37
2022-11-15T02:23:52.214Z,133.77
2022-11-15T02:24:53.311Z,131.27
2022-11-15T02:25:30.255Z,132.43
2022-11-15T02:25:58.547Z,134.20
2022-11-15T02:26:33.056Z,137.30
2022-11-15T02:27:10.902Z,132.07
2022-11-15T02:28:18.561Z,128.45
2022-11-15T02:28:49.714Z,128.60
2022-11-15T02:29:13.196Z,126.85
2022-11-15T02:29:45.651Z,132.35
2022-11-15T02:30:23.862Z,126.32
2022-11-15T02:30:47.286Z,129.43
2022-11-15T02:31:12.642Z,129.52
2022-11-15T02:31:37.853Z,128.45
2022-11-15T02:32:03.642Z,132.77
2022-11-15T02:32:28.827Z,131.80
2022-11-15T02:32:53.782Z,123.32
2022-11-15T02:33:25.127Z,120.03
2022-11-15T02:33:53.306Z,119.55
2022-11-15T02:34:19.576Z,123.15
2022-11-15T02:34:46.347Z,122.93
2022-11-15T02:35:13.627Z,126.10
2022-11-15T02:35:38.888Z,125.53
2022-11-15T02:36:02.337Z,127.57
2022-11-15T02:36:31.543Z,130.98
2022-11-15T02:36:59.865Z,133.93
2022-11-15T02:37:26.904Z,132.23
2022-11-15T02:37:53.623Z,129.50
2022-11-15T02:38:18.609Z,133.35
2022-11-15T02:38:44.532Z,132.95
2022-11-15T02:39:10.408Z,140.07
2022-11-15T02:39:36.037Z,138.45
2022-11-15T02:40:01.128Z,135.77
2022-11-15T02:40:30.083Z,136.23
2022-11-15T02:40:55.111Z,132.27
2022-11-15T02:41:20.974Z,134.05
2022-11-15T02:41:48.365Z,134.35
2022-11-15T02:42:33.125Z,138.65
2022-11-15T02:43:15.469Z,134.65
2022-11-15T02:43:58.402Z,141.48
2022-11-15T02:44:24.823Z,136.50
2022-11-15T02:44:47.587Z,136.00
2022-11-15T02:45:11.734Z,144.00
2022-11-15T02:45:38.411Z,140.30
2022-11-15T02:46:04.365Z,142.90
2022-11-15T02:46:58.895Z,142.50
2022-11-15T02:47:21.783Z,143.25
2022-11-15T02:47:45.354Z,142.35
2022-11-15T02:48:08.016Z,143.00
2022-11-15T02:48:31.517Z,148.57
2022-11-15T02:48:54.326Z,149.98
2022-11-15T02:49:17.235Z,149.95
2022-11-15T02:49:41.144Z,153.82
2022-11-15T02:50:06.812Z,149.33
2022-11-15T02:50:30.730Z,154.50
2022-11-15T02:50:53.463Z,154.70
2022-11-15T02:51:16.258Z,161.02
2022-11-15T02:51:39.047Z,159.45
2022-11-15T02:52:01.834Z,148.38
2022-11-15T02:52:26.413Z,144.77
2022-11-15T02:52:50.403Z,144.23
2022-11-15T02:53:13.267Z,150.57
2022-11-15T02:53:36.817Z,154.10
2022-11-15T02:53:59.543Z,148.27
2022-11-15T02:54:23.847Z,145.10
2022-11-15T02:54:55.209Z,147.82
2022-11-15T02:55:32.295Z,147.63
2022-11-15T02:55:55.066Z,144.63
2022-11-15T02:56:17.783Z,143.25
2022-11-15T02:56:40.566Z,140.20
2022-11-15T02:57:05.608Z,138.88
2022-11-15T02:57:36.077Z,142.90
2022-11-15T02:58:13.317Z,138.13
2022-11-15T02:58:50.128Z,144.30
2022-11-15T02:59:20.651Z,138.32
2022-11-15T03:00:03.715Z,144.68
2022-11-15T03:00:26.499Z,143.57
2022-11-15T03:00:53.238Z,145.82
2022-11-15T03:01:21.332Z,145.27
2022-11-15T03:01:50.528Z,140.98
2022-11-15T03:02:24.394Z,137.40
2022-11-15T03:03:12.993Z,138.32
2022-11-15T03:03:43.742Z,142.63
2022-11-15T03:04:12.166Z,138.40
2022-11-15T03:04:38.722Z,136.27
2022-11-15T03:05:04.987Z,135.88
2022-11-15T03:05:32.622Z,142.48
2022-11-15T03:05:58.587Z,139.32
2022-11-15T03:06:26.044Z,135.15
2022-11-15T03:06:51.419Z,138.77
2022-11-15T03:07:17.561Z,148.95
2022-11-15T03:07:42.182Z,143.40
2022-11-15T03:08:08.067Z,138.10
2022-11-15T03:08:32.882Z,141.77
2022-11-15T03:09:01.457Z,141.05
2022-11-15T03:09:30.778Z,134.80
2022-11-15T03:09:56.335Z,132.52
2022-11-15T03:10:20.832Z,129.38
2022-11-15T03:10:47.139Z,138.35
2022-11-15T03:11:10.837Z,137.60
2022-11-15T03:11:35.983Z,139.00
2022-11-15T03:12:08.344Z,135.38
2022-11-15T03:12:35.269Z,136.57
2022-11-15T03:12:59.213Z,132.52
2022-11-15T03:13:25.834Z,138.05
2022-11-15T03:13:50.338Z,133.55
2022-11-15T03:14:19.994Z,135.88
2022-11-15T03:14:44.962Z,140.10
2022-11-15T03:15:09.641Z,138.15
2022-11-15T03:15:34.168Z,141.18
2022-11-15T03:16:03.217Z,141.18
2022-11-15T03:16:29.628Z,146.50
2022-11-15T03:16:56.975Z,142.32
2022-11-15T03:17:24.804Z,141.40
2022-11-15T03:17:50.334Z,140.13
2022-11-15T03:18:16.649Z,151.80
2022-11-15T03:18:41.764Z,151.25
2022-11-15T03:19:06.382Z,149.32
2022-11-15T03:19:31.596Z,139.77
2022-11-15T03:19:55.608Z,136.75
2022-11-15T03:20:19.281Z,132.95
2022-11-15T03:20:42.094Z,138.80
2022-11-15T03:21:07.205Z,135.23
2022-11-15T03:21:30.061Z,140.52
2022-11-15T03:21:52.871Z,139.43
2022-11-15T03:22:17.321Z,145.60
2022-11-15T03:22:43.622Z,144.82
2022-11-15T03:23:07.568Z,135.07
2022-11-15T03:23:30.706Z,146.77
2022-11-15T03:23:53.758Z,146.10
2022-11-15T03:24:16.503Z,145.75
2022-11-15T03:24:39.371Z,145.57
2022-11-15T03:25:06.372Z,142.75
2022-11-15T03:25:29.290Z,138.23
2022-11-15T03:25:52.317Z,141.60
2022-11-15T03:26:15.830Z,144.30
2022-11-15T03:26:38.812Z,141.70
2022-11-15T03:27:01.644Z,142.77
2022-11-15T03:27:25.732Z,140.25
2022-11-15T03:27:49.912Z,140.35
2022-11-15T03:28:14.134Z,148.00
2022-11-15T03:28:39.783Z,156.50
2022-11-15T03:29:04.716Z,147.85
2022-11-15T03:29:29.093Z,159.18
2022-11-15T03:29:54.037Z,155.18
2022-11-15T03:30:17.615Z,162.20
2022-11-15T03:30:40.723Z,168.07
2022-11-15T03:31:24.960Z,165.40
2022-11-15T03:31:50.901Z,166.82
2022-11-15T03:32:15.696Z,174.15
2022-11-15T03:32:41.973Z,170.45
2022-11-15T03:33:04.836Z,178.90
2022-11-15T03:33:27.581Z,201.85
2022-11-15T03:33:50.688Z,179.90
2022-11-15T03:34:17.302Z,170.70
2022-11-15T03:34:42.217Z,172.77
2022-11-15T03:35:07.023Z,158.77
2022-11-15T03:35:30.927Z,158.98
2022-11-15T03:35:53.642Z,159.15
2022-11-15T03:36:16.391Z,154.88
2022-11-15T03:36:39.107Z,149.57
2022-11-15T03:37:01.801Z,150.93
2022-11-15T03:37:27.684Z,150.82
2022-11-15T03:37:52.513Z,165.98
2022-11-15T03:38:18.594Z,154.02
2022-11-15T03:38:41.559Z,144.90
2022-11-15T03:39:07.273Z,149.68
2022-11-15T03:39:32.482Z,146.77
2022-11-15T03:39:55.232Z,157.40
2022-11-15T03:40:18.231Z,146.35
2022-11-15T03:40:42.338Z,150.30
2022-11-15T03:41:06.917Z,145.13
2022-11-15T03:41:31.642Z,152.95
2022-11-15T03:41:58.692Z,151.43
2022-11-15T03:42:25.939Z,140.50
2022-11-15T03:42:50.218Z,144.57
2022-11-15T03:43:16.361Z,140.32
2022-11-15T03:43:42.753Z,155.32
2022-11-15T03:44:09.631Z,155.63
2022-11-15T03:44:38.067Z,154.75
2022-11-15T03:45:03.514Z,144.80
2022-11-15T03:45:29.916Z,145.95
2022-11-15T03:45:55.778Z,152.45
2022-11-15T03:46:24.421Z,154.43
2022-11-15T03:46:49.448Z,145.85
2022-11-15T03:47:13.962Z,146.20
2022-11-15T03:47:39.833Z,147.95
2022-11-15T03:48:04.222Z,150.40
2022-11-15T03:48:28.467Z,137.80
2022-11-15T03:48:51.986Z,137.60
2022-11-15T03:49:16.622Z,141.30
2022-11-15T03:49:42.066Z,144.68
2022-11-15T03:50:06.177Z,143.90
2022-11-15T03:50:28.966Z,144.50
2022-11-15T03:50:51.702Z,139.13
2022-11-15T03:51:14.538Z,138.02
2022-11-15T03:51:37.238Z,146.02
2022-11-15T03:52:00.044Z,144.27
2022-11-15T03:52:22.821Z,139.90
2022-11-15T03:52:46.146Z,140.05
2022-11-15T03:53:08.959Z,140.15
2022-11-15T03:53:33.262Z,139.35
2022-11-15T03:53:56.320Z,142.48
2022-11-15T03:54:19.049Z,137.20
2022-11-15T03:54:50.374Z,137.55
2022-11-15T03:55:14.848Z,144.07
2022-11-15T03:55:37.526Z,144.82
2022-11-15T03:56:03.029Z,147.60
2022-11-15T03:56:25.751Z,140.52
2022-11-15T03:56:48.643Z,139.57
2022-11-15T03:57:11.399Z,142.30
2022-11-15T03:57:34.118Z,139.18
2022-11-15T03:57:59.199Z,146.65
2022-11-15T03:58:21.908Z,146.93
2022-11-15T03:58:44.643Z,142.85
2022-11-15T03:59:07.353Z,146.05
2022-11-15T03:59:32.644Z,149.35
2022-11-15T03:59:55.383Z,144.45
2022-11-15T04:00:18.213Z,150.73
2022-11-15T04:00:41.119Z,154.38
2022-11-15T04:01:03.923Z,152.95
2022-11-15T04:01:29.211Z,154.20
2022-11-15T04:01:52.209Z,146.52
2022-11-15T04:02:15.190Z,150.60
2022-11-15T04:02:38.075Z,145.85
2022-11-15T04:03:00.801Z,154.75
2022-11-15T04:03:23.590Z,164.18
2022-11-15T04:03:46.535Z,160.02
2022-11-15T04:04:09.275Z,155.77
2022-11-15T04:04:31.958Z,153.27
2022-11-15T04:04:54.615Z,153.13
2022-11-15T04:05:17.349Z,160.85
2022-11-15T04:05:40.251Z,156.63
2022-11-15T04:06:03.032Z,153.63
2022-11-15T04:06:25.755Z,152.30
2022-11-15T04:06:48.542Z,157.95
2022-11-15T04:07:11.520Z,156.35
2022-11-15T04:07:34.977Z,165.07
2022-11-15T04:07:59.157Z,174.20
2022-11-15T04:08:21.983Z,173.50
2022-11-15T04:08:44.702Z,178.93
2022-11-15T04:09:07.503Z,173.50
2022-11-15T04:09:30.180Z,176.98
2022-11-15T04:10:05.052Z,174.68
2022-11-15T04:10:27.857Z,177.98
2022-11-15T04:10:50.542Z,178.00
2022-11-15T04:11:13.222Z,170.38
2022-11-15T04:11:35.918Z,177.38
2022-11-15T04:11:58.657Z,173.05
2022-11-15T04:12:32.075Z,174.02
2022-11-15T04:12:55.203Z,163.45
2022-11-15T04:13:17.907Z,171.02
2022-11-15T04:13:40.628Z,182.00
2022-11-15T04:14:03.603Z,173.35
2022-11-15T04:14:26.377Z,166.85
2022-11-15T04:15:08.174Z,167.68
2022-11-15T04:15:31.102Z,172.43
2022-11-15T04:15:53.762Z,164.27
2022-11-15T04:16:16.477Z,163.65
2022-11-15T04:16:43.921Z,178.27
2022-11-15T04:17:07.082Z,166.63
2022-11-15T04:17:29.809Z,169.20
2022-11-15T04:17:54.017Z,176.95
2022-11-15T04:18:16.798Z,169.52
2022-11-15T04:18:39.493Z,161.50
2022-11-15T04:19:20.804Z,163.73
2022-11-15T04:20:02.445Z,204.98
2022-11-15T04:20:44.963Z,183.63
2022-11-15T04:21:26.518Z,168.35
2022-11-15T04:22:08.222Z,178.48
2022-11-15T04:22:49.671Z,174.13
2022-11-15T04:23:32.148Z,182.85
2022-11-15T04:24:13.444Z,168.68
2022-11-15T04:24:36.228Z,164.82
2022-11-15T04:24:58.954Z,169.82
2022-11-15T04:25:24.013Z,170.25
2022-11-15T04:25:48.643Z,162.73
2022-11-15T04:26:12.467Z,162.40
2022-11-15T04:26:35.188Z,163.80
2022-11-15T04:26:57.862Z,155.10
2022-11-15T04:27:20.611Z,151.25
2022-11-15T04:27:43.298Z,148.90
2022-11-15T04:28:06.145Z,154.35
2022-11-15T04:28:28.826Z,155.80
2022-11-15T04:29:09.774Z,149.20
2022-11-15T04:29:35.324Z,144.40
2022-11-15T04:29:58.697Z,159.10
2022-11-15T04:30:21.476Z,151.82
2022-11-15T04:30:44.162Z,164.18
2022-11-15T04:31:07.038Z,164.75
2022-11-15T04:31:29.757Z,159.82
2022-11-15T04:31:56.703Z,170.23
2022-11-15T04:32:19.499Z,162.75
2022-11-15T04:32:42.177Z,164.18
2022-11-15T04:33:04.912Z,157.90
2022-11-15T04:33:27.568Z,167.45
2022-11-15T04:33:50.402Z,158.48
2022-11-15T04:34:13.102Z,162.25
2022-11-15T04:34:36.380Z,161.98
2022-11-15T04:34:59.092Z,171.95
2022-11-15T04:35:21.712Z,174.40
2022-11-15T04:35:44.558Z,165.63
2022-11-15T04:36:26.184Z,173.90
2022-11-15T04:37:07.412Z,169.10
2022-11-15T04:37:30.078Z,161.23
2022-11-15T04:37:53.118Z,178.07
2022-11-15T04:38:15.878Z,184.63
2022-11-15T04:38:38.567Z,185.18
2022-11-15T04:39:01.277Z,172.98
2022-11-15T04:39:23.924Z,161.50
2022-11-15T04:39:46.742Z,156.48
2022-11-15T04:40:10.357Z,164.85
2022-11-15T04:40:33.243Z,164.13
2022-11-15T04:40:56.022Z,165.60
2022-11-15T04:41:18.722Z,161.95
2022-11-15T04:41:41.602Z,158.25
2022-11-15T04:42:04.637Z,163.20
2022-11-15T04:42:27.358Z,161.00
2022-11-15T04:42:50.119Z,151.68
2022-11-15T04:43:12.938Z,155.88
2022-11-15T04:43:35.975Z,150.80
2022-11-15T04:43:59.108Z,151.68
2022-11-15T04:44:21.837Z,186.98
2022-11-15T04:44:44.588Z,174.25
2022-11-15T04:45:08.455Z,155.25
2022-11-15T04:45:31.242Z,156.90
2022-11-15T04:45:53.965Z,153.70
2022-11-15T04:46:16.798Z,163.60
2022-11-15T04:46:39.522Z,155.23
2022-11-15T04:47:03.762Z,151.05
2022-11-15T04:47:26.536Z,145.82
2022-11-15T04:47:49.272Z,143.80
2022-11-15T04:48:12.402Z,144.40
2022-11-15T04:48:35.322Z,142.77
2022-11-15T04:48:59.182Z,152.85
2022-11-15T04:49:22.452Z,149.90
2022-11-15T04:49:45.261Z,154.98
2022-11-15T04:50:08.931Z,151.20
2022-11-15T04:50:31.957Z,155.93
2022-11-15T04:50:54.596Z,160.05
2022-11-15T04:51:17.279Z,161.18
2022-11-15T04:51:41.328Z,144.98
2022-11-15T04:52:04.234Z,148.70
2022-11-15T04:52:27.039Z,151.55
2022-11-15T04:52:52.889Z,157.23
2022-11-15T04:53:15.743Z,175.90
2022-11-15T04:53:38.506Z,173.90
2022-11-15T04:54:01.178Z,171.38
2022-11-15T04:54:24.038Z,164.93
2022-11-15T04:54:47.312Z,158.25
2022-11-15T04:55:10.593Z,175.20
2022-11-15T04:55:33.288Z,170.27
2022-11-15T04:55:56.018Z,175.52
2022-11-15T04:56:18.754Z,170.30
2022-11-15T04:56:41.464Z,176.85
2022-11-15T04:57:04.288Z,170.10
2022-11-15T04:57:27.058Z,177.15
2022-11-15T04:57:58.591Z,188.63
2022-11-15T04:58:21.274Z,185.05
2022-11-15T04:58:44.019Z,188.13
2022-11-15T04:59:06.903Z,195.50
2022-11-15T04:59:29.612Z,193.00
2022-11-15T04:59:52.393Z,205.77
2022-11-15T05:00:17.381Z,177.45
2022-11-15T05:00:41.268Z,173.63
2022-11-15T05:01:09.379Z,201.20
2022-11-15T05:01:32.730Z,216.98
2022-11-15T05:01:55.598Z,245.88
2022-11-15T05:02:22.337Z,313.00
2022-11-15T05:03:03.837Z,187.00
2022-11-15T05:03:52.829Z,183.35
2022-11-15T05:04:21.455Z,219.30
2022-11-15T05:04:44.228Z,190.95
2022-11-15T05:05:07.885Z,176.40
2022-11-15T05:05:30.650Z,181.68
2022-11-15T05:05:53.410Z,208.55
2022-11-15T05:06:16.140Z,170.98
2022-11-15T05:06:38.901Z,175.88
2022-11-15T05:07:01.842Z,170.35
2022-11-15T05:07:24.838Z,204.70
2022-11-15T05:07:47.744Z,219.30
2022-11-15T05:08:10.521Z,190.80
2022-11-15T05:08:33.301Z,216.23
2022-11-15T05:08:56.165Z,185.95
2022-11-15T05:09:19.125Z,186.63
2022-11-15T05:09:41.875Z,185.07
2022-11-15T05:10:05.230Z,173.00
2022-11-15T05:10:27.955Z,343.25